メインページ
METAR-TAF:

METAR-TAF

空港 :

カイエンヌ・フェリックス・エブエ国際空港

カイエンヌ, フランス領ギアナ

緯度: 04-50N, 経度: 052-22W, 海抜: 105m

現時点の気象観測

当レポートは25分前の11:30(UTC)に作成
東/北東の風 9kt
気温 28°C
湿度 89%
気圧 1013 hPa
視程10km以上
高度1300ftの千切れ雲あり
高度3500ftの千切れ雲あり

METAR: SOCA 221130Z AUTO 07009KT 9999 BKN013 BKN035 28/26 Q1013 TEMPO 4000 SHRA FEW012TCU

時間: 08:55 (11:55 UTC)

予報

当レポートは1時間55分前の10:00(UTC)に作成
予報は22日の 12時(UTC)から 23日の 12時(UTC)まで有効
の風 10kt
視程10km以上
高度2200ftの雲は散在している
高度4500ftの千切れ雲あり
確率 30% :
22日の 12時(UTC)から 22日の 15時(UTC)まで一時的に
視程: 4000m
高度1200ftの雲はほとんどない, 塔状積雲.
にわか雨
22日の 15時(UTC)から 23日の 02時(UTC)まで一時的に
視程: 3000m
高度1200ftの雲は散在している, 塔状積雲.
にわか雨
確率 30% :
22日の 16時(UTC)から 22日の 20時(UTC)まで一時的に
視程: 1000m
高度1000ftの雲はほとんどない, 積乱雲.
激しい雷雨, 雨
23日の 02時(UTC)から 23日の 12時(UTC)まで一時的に
視程: 2000m
高度1000ftの雲は散在している, 塔状積雲.
高度1500ftの千切れ雲あり
にわか雨

TAF: SOCA 221000Z 2212/2312 08010KT 9999 SCT022 BKN045 PROB30 TEMPO 2212/2215 4000 SHRA FEW012TCU TEMPO 2215/2302 3000 SHRA SCT012TCU PROB30 TEMPO 2216/2220 1000 TSRA FEW010CB TEMPO 2302/2312 2000 SHRA SCT010TCU BKN015

4,000以上の空港の気象観測と天気予報(METAR報とTAF報)

利用可能な観測所は地図上に黄色い丸と赤い丸で示す。

丸の上にカーソルを重ねると観測所名を参照できる。

次にクリックすると気象観測と天気予報を参照できる。

マップの切り替え:黒色「×」印の緑ボタンをクリックして拡大、「-」印の緑ボタンをクリックして縮小、緑色の三角印をクリックして隣りの地図に切り替え


METAR-TAF: